Station Historical Data
Daily Summary for January 7, 2018 Units:  Both    English   Metric
« Previous Day
Next Day »
Daily Weekly Monthly Yearly Custom
  High: Low: Average:
Temperature: 27.4 °F /  -2.6 °C -4.7 °F /  -20.4 °C 10 °F /  -12.2 °C
Dew Point: 14.7 °F /  -9.6 °C -10.3 °F /  -23.5 °C 0.2 °F /  -17.7 °C
Humidity: 81% 48% 65%
Wind Speed: 13.0mph /  20.9km/h - 4.5mph /  7.2km/h
Wind Gust: 21.0mph /  33.8km/h - -
Wind- - SSW
Pressure: 30.61 in /  1036.5 hPa 30.09 in /  1018.8 hPa -
Precipitation: 0.00 in /  0 mm    
Historical Graphs
 
 
Tabular Data for January 7, 2018
Time Temperature Dew Point Pressure Wind Wind Speed Wind Gust Humidity Rainfall Rate (Hourly)
00:04 2.0 °F /  -16.7 °C -4.7 °F /  -20.4 °C 30.61in /  1036.5hPa West 3.0mph /  4.8km/h 7.0mph /  11.3km/h 73% 0.00in /  0mm
00:09 2.0 °F /  -16.7 °C -4.7 °F /  -20.4 °C 30.61in /  1036.5hPa WSW 3.0mph /  4.8km/h 7.0mph /  11.3km/h 73% 0.00in /  0mm
00:14 2.0 °F /  -16.7 °C -4.7 °F /  -20.4 °C 30.61in /  1036.5hPa WSW 3.0mph /  4.8km/h 8.0mph /  12.9km/h 73% 0.00in /  0mm
00:19 2.0 °F /  -16.7 °C -4.7 °F /  -20.4 °C 30.61in /  1036.5hPa WSW 2.0mph /  3.2km/h 8.0mph /  12.9km/h 73% 0.00in /  0mm
00:24 2.0 °F /  -16.7 °C -4.7 °F /  -20.4 °C 30.61in /  1036.5hPa WSW 3.0mph /  4.8km/h 10.0mph /  16.1km/h 73% 0.00in /  0mm
00:29 1.9 °F /  -16.7 °C -4.8 °F /  -20.4 °C 30.61in /  1036.5hPa West 1.0mph /  1.6km/h 6.0mph /  9.7km/h 73% 0.00in /  0mm
00:34 1.8 °F /  -16.8 °C -4.9 °F /  -20.5 °C 30.61in /  1036.5hPa West 2.0mph /  3.2km/h 6.0mph /  9.7km/h 73% 0.00in /  0mm
00:44 1.6 °F /  -16.9 °C -5.1 °F /  -20.6 °C 30.61in /  1036.5hPa WSW 2.0mph /  3.2km/h 6.0mph /  9.7km/h 73% 0.00in /  0mm
00:54 1.5 °F /  -16.9 °C -5.2 °F /  -20.7 °C 30.60in /  1036.1hPa WSW 2.0mph /  3.2km/h 5.0mph /  8km/h 73% 0.00in /  0mm
00:59 1.4 °F /  -17 °C -5.3 °F /  -20.7 °C 30.60in /  1036.1hPa West 2.0mph /  3.2km/h 5.0mph /  8km/h 73% 0.00in /  0mm
01:05 1.4 °F /  -17 °C -5.3 °F /  -20.7 °C 30.60in /  1036.1hPa West 2.0mph /  3.2km/h 4.0mph /  6.4km/h 73% 0.00in /  0mm
01:10 1.3 °F /  -17.1 °C -5.3 °F /  -20.7 °C 30.61in /  1036.5hPa WSW 2.0mph /  3.2km/h 4.0mph /  6.4km/h 73% 0.00in /  0mm
01:20 1.4 °F /  -17 °C -5.3 °F /  -20.7 °C 30.61in /  1036.5hPa WSW 2.0mph /  3.2km/h 4.0mph /  6.4km/h 73% 0.00in /  0mm
01:25 1.4 °F /  -17 °C -5.3 °F /  -20.7 °C 30.61in /  1036.5hPa WSW 4.0mph /  6.4km/h 5.0mph /  8km/h 73% 0.00in /  0mm
01:30 1.4 °F /  -17 °C -5.3 °F /  -20.7 °C 30.61in /  1036.5hPa WSW 2.0mph /  3.2km/h 5.0mph /  8km/h 73% 0.00in /  0mm
01:35 1.5 °F /  -16.9 °C -4.9 °F /  -20.5 °C 30.60in /  1036.1hPa WSW 2.0mph /  3.2km/h 4.0mph /  6.4km/h 74% 0.00in /  0mm
01:40 1.5 °F /  -16.9 °C -4.9 °F /  -20.5 °C 30.60in /  1036.1hPa WSW 1.0mph /  1.6km/h 3.0mph /  4.8km/h 74% 0.00in /  0mm
01:45 1.5 °F /  -16.9 °C -4.9 °F /  -20.5 °C 30.60in /  1036.1hPa WSW 1.0mph /  1.6km/h 3.0mph /  4.8km/h 74% 0.00in /  0mm
01:50 1.5 °F /  -16.9 °C -4.9 °F /  -20.5 °C 30.60in /  1036.1hPa WSW 2.0mph /  3.2km/h 3.0mph /  4.8km/h 74% 0.00in /  0mm
01:55 1.6 °F /  -16.9 °C -4.8 °F /  -20.4 °C 30.60in /  1036.1hPa WSW 1.0mph /  1.6km/h 3.0mph /  4.8km/h 74% 0.00in /  0mm
02:00 1.5 °F /  -16.9 °C -4.9 °F /  -20.5 °C 30.60in /  1036.1hPa SSE 2.0mph /  3.2km/h 4.0mph /  6.4km/h 74% 0.00in /  0mm
02:05 1.4 °F /  -17 °C -5.0 °F /  -20.6 °C 30.60in /  1036.1hPa SSE 1.0mph /  1.6km/h 4.0mph /  6.4km/h 74% 0.00in /  0mm
02:10 1.4 °F /  -17 °C -5.0 °F /  -20.6 °C 30.60in /  1036.1hPa South 3.0mph /  4.8km/h 4.0mph /  6.4km/h 74% 0.00in /  0mm
02:15 1.2 °F /  -17.1 °C -5.2 °F /  -20.7 °C 30.60in /  1036.1hPa South 2.0mph /  3.2km/h 5.0mph /  8km/h 74% 0.00in /  0mm
02:20 1.0 °F /  -17.2 °C -5.4 °F /  -20.8 °C 30.60in /  1036.1hPa South 2.0mph /  3.2km/h 5.0mph /  8km/h 74% 0.00in /  0mm
02:25 0.9 °F /  -17.3 °C -5.5 °F /  -20.8 °C 30.59in /  1035.8hPa South 1.0mph /  1.6km/h 4.0mph /  6.4km/h 74% 0.00in /  0mm
02:30 0.7 °F /  -17.4 °C -5.6 °F /  -20.9 °C 30.60in /  1036.1hPa South 1.0mph /  1.6km/h 4.0mph /  6.4km/h 74% 0.00in /  0mm
02:35 0.4 °F /  -17.6 °C -5.9 °F /  -21.1 °C 30.59in /  1035.8hPa South 2.0mph /  3.2km/h 4.0mph /  6.4km/h 74% 0.00in /  0mm
02:45 -0.1 °F /  -17.8 °C -6.4 °F /  -21.3 °C 30.60in /  1036.1hPa South 2.0mph /  3.2km/h 3.0mph /  4.8km/h 74% 0.00in /  0mm
02:50 -0.3 °F /  -17.9 °C -6.6 °F /  -21.4 °C 30.59in /  1035.8hPa South 1.0mph /  1.6km/h 3.0mph /  4.8km/h 74% 0.00in /  0mm
02:55 -0.5 °F /  -18.1 °C -6.8 °F /  -21.6 °C 30.59in /  1035.8hPa Calm     74% 0.00in /  0mm
03:00 -0.7 °F /  -18.2 °C -7.0 °F /  -21.7 °C 30.59in /  1035.8hPa Calm     74% 0.00in /  0mm
03:05 -0.9 °F /  -18.3 °C -7.2 °F /  -21.8 °C 30.59in /  1035.8hPa Calm     74% 0.00in /  0mm
03:10 -1.0 °F /  -18.3 °C -7.3 °F /  -21.8 °C 30.59in /  1035.8hPa Calm     74% 0.00in /  0mm
03:15 -1.2 °F /  -18.4 °C -7.5 °F /  -21.9 °C 30.59in /  1035.8hPa Calm     74% 0.00in /  0mm
03:25 -1.6 °F /  -18.7 °C -7.9 °F /  -22.2 °C 30.58in /  1035.4hPa Calm     74% 0.00in /  0mm
03:30 -1.8 °F /  -18.8 °C -8.1 °F /  -22.3 °C 30.58in /  1035.4hPa Calm     74% 0.00in /  0mm
03:35 -2.1 °F /  -18.9 °C -8.4 °F /  -22.4 °C 30.58in /  1035.4hPa Calm     74% 0.00in /  0mm
03:40 -2.3 °F /  -19.1 °C -8.6 °F /  -22.6 °C 30.58in /  1035.4hPa Calm     74% 0.00in /  0mm
03:45 -2.7 °F /  -19.3 °C -8.9 °F /  -22.7 °C 30.58in /  1035.4hPa Calm     74% 0.00in /  0mm
03:50 -2.9 °F /  -19.4 °C -9.4 °F /  -23 °C 30.57in /  1035.1hPa Calm     73% 0.00in /  0mm
03:55 -3.1 °F /  -19.5 °C -9.3 °F /  -22.9 °C 30.57in /  1035.1hPa Calm     74% 0.00in /  0mm
04:00 -3.3 °F /  -19.6 °C -9.5 °F /  -23.1 °C 30.57in /  1035.1hPa Calm   2.0mph /  3.2km/h 74% 0.00in /  0mm
04:05 -3.6 °F /  -19.8 °C -9.8 °F /  -23.2 °C 30.57in /  1035.1hPa Calm   2.0mph /  3.2km/h 74% 0.00in /  0mm
04:10 -3.8 °F /  -19.9 °C -10.0 °F /  -23.3 °C 30.58in /  1035.4hPa Calm   2.0mph /  3.2km/h 74% 0.00in /  0mm
04:15 -3.9 °F /  -19.9 °C -10.1 °F /  -23.4 °C 30.58in /  1035.4hPa South 1.0mph /  1.6km/h 3.0mph /  4.8km/h 74% 0.00in /  0mm
04:20 -4.1 °F /  -20.1 °C -10.3 °F /  -23.5 °C 30.58in /  1035.4hPa South 1.0mph /  1.6km/h 3.0mph /  4.8km/h 74% 0.00in /  0mm
04:25 -4.1 °F /  -20.1 °C -10.0 °F /  -23.3 °C 30.58in /  1035.4hPa South 1.0mph /  1.6km/h 5.0mph /  8km/h 75% 0.00in /  0mm
04:30 -4.1 °F /  -20.1 °C -10.0 °F /  -23.3 °C 30.58in /  1035.4hPa South 2.0mph /  3.2km/h 5.0mph /  8km/h 75% 0.00in /  0mm
04:35 -4.1 °F /  -20.1 °C -10.0 °F /  -23.3 °C 30.58in /  1035.4hPa South 2.0mph /  3.2km/h 4.0mph /  6.4km/h 75% 0.00in /  0mm
04:40 -4.2 °F /  -20.1 °C -9.9 °F /  -23.3 °C 30.58in /  1035.4hPa South 2.0mph /  3.2km/h 4.0mph /  6.4km/h 76% 0.00in /  0mm
04:45 -4.2 °F /  -20.1 °C -9.9 °F /  -23.3 °C 30.57in /  1035.1hPa South 2.0mph /  3.2km/h 4.0mph /  6.4km/h 76% 0.00in /  0mm
04:50 -4.3 °F /  -20.2 °C -10.0 °F /  -23.3 °C 30.57in /  1035.1hPa South 2.0mph /  3.2km/h 4.0mph /  6.4km/h 76% 0.00in /  0mm
04:55 -4.4 °F /  -20.2 °C -10.0 °F /  -23.3 °C 30.58in /  1035.4hPa SSE 1.0mph /  1.6km/h 3.0mph /  4.8km/h 76% 0.00in /  0mm
05:05 -4.5 °F /  -20.3 °C -10.1 °F /  -23.4 °C 30.58in /  1035.4hPa South 1.0mph /  1.6km/h 3.0mph /  4.8km/h 76% 0.00in /  0mm
05:10 -4.6 °F /  -20.3 °C -10.2 °F /  -23.4 °C 30.58in /  1035.4hPa South 1.0mph /  1.6km/h 3.0mph /  4.8km/h 76% 0.00in /  0mm
05:15 -4.7 °F /  -20.4 °C -10.1 °F /  -23.4 °C 30.58in /  1035.4hPa South 1.0mph /  1.6km/h 3.0mph /  4.8km/h 77% 0.00in /  0mm
05:20 -4.7 °F /  -20.4 °C -10.1 °F /  -23.4 °C 30.58in /  1035.4hPa South 1.0mph /  1.6km/h 3.0mph /  4.8km/h 77% 0.00in /  0mm
05:25 -4.7 °F /  -20.4 °C -10.1 °F /  -23.4 °C 30.58in /  1035.4hPa South 1.0mph /  1.6km/h 2.0mph /  3.2km/h 77% 0.00in /  0mm
05:30 -4.6 °F /  -20.3 °C -10.0 °F /  -23.3 °C 30.58in /  1035.4hPa Calm   2.0mph /  3.2km/h 77% 0.00in /  0mm
05:35 -4.5 °F /  -20.3 °C -9.9 °F /  -23.3 °C 30.58in /  1035.4hPa Calm   2.0mph /  3.2km/h 77% 0.00in /  0mm
05:40 -4.4 °F /  -20.2 °C -9.5 °F /  -23.1 °C 30.58in /  1035.4hPa Calm   2.0mph /  3.2km/h 78% 0.00in /  0mm
05:45 -4.1 °F /  -20.1 °C -9.2 °F /  -22.9 °C 30.58in /  1035.4hPa Calm     78% 0.00in /  0mm
05:50 -3.9 °F /  -19.9 °C -9.0 °F /  -22.8 °C 30.58in /  1035.4hPa Calm     78% 0.00in /  0mm
06:05 -3.3 °F /  -19.6 °C -8.2 °F /  -22.3 °C 30.58in /  1035.4hPa Calm     79% 0.00in /  0mm
06:10 -3.1 °F /  -19.5 °C -8.0 °F /  -22.2 °C 30.58in /  1035.4hPa Calm     79% 0.00in /  0mm
06:15 -2.8 °F /  -19.3 °C -7.7 °F /  -22.1 °C 30.58in /  1035.4hPa Calm   3.0mph /  4.8km/h 79% 0.00in /  0mm
06:20 -2.6 °F /  -19.2 °C -7.5 °F /  -21.9 °C 30.58in /  1035.4hPa SE 1.0mph /  1.6km/h 3.0mph /  4.8km/h 79% 0.00in /  0mm
06:25 -2.3 °F /  -19.1 °C -7.2 °F /  -21.8 °C 30.58in /  1035.4hPa SE 1.0mph /  1.6km/h 3.0mph /  4.8km/h 79% 0.00in /  0mm
06:35 -2.0 °F /  -18.9 °C -6.9 °F /  -21.6 °C 30.58in /  1035.4hPa Calm   1.0mph /  1.6km/h 79% 0.00in /  0mm
06:40 -1.8 °F /  -18.8 °C -6.5 °F /  -21.4 °C 30.57in /  1035.1hPa Calm   1.0mph /  1.6km/h 80% 0.00in /  0mm
06:45 -1.6 °F /  -18.7 °C -6.3 °F /  -21.3 °C 30.57in /  1035.1hPa Calm   2.0mph /  3.2km/h 80% 0.00in /  0mm
07:00 -1.1 °F /  -18.4 °C -5.8 °F /  -21 °C 30.57in /  1035.1hPa Calm     80% 0.00in /  0mm
07:10 -0.7 °F /  -18.2 °C -5.4 °F /  -20.8 °C 30.56in /  1034.8hPa ESE 1.0mph /  1.6km/h 4.0mph /  6.4km/h 80% 0.00in /  0mm
07:15 -0.5 °F /  -18.1 °C -5.2 °F /  -20.7 °C 30.56in /  1034.8hPa ESE 1.0mph /  1.6km/h 4.0mph /  6.4km/h 80% 0.00in /  0mm
07:20 -0.3 °F /  -17.9 °C -4.7 °F /  -20.4 °C 30.56in /  1034.8hPa SE 2.0mph /  3.2km/h 3.0mph /  4.8km/h 81% 0.00in /  0mm
07:25 0.2 °F /  -17.7 °C -4.3 °F /  -20.2 °C 30.56in /  1034.8hPa SE 2.0mph /  3.2km/h 4.0mph /  6.4km/h 81% 0.00in /  0mm
07:30 0.5 °F /  -17.5 °C -4.0 °F /  -20 °C 30.55in /  1034.4hPa SSE 1.0mph /  1.6km/h 2.0mph /  3.2km/h 81% 0.00in /  0mm
07:35 0.8 °F /  -17.3 °C -3.7 °F /  -19.8 °C 30.55in /  1034.4hPa SSE 1.0mph /  1.6km/h 5.0mph /  8km/h 81% 0.00in /  0mm
07:40 1.3 °F /  -17.1 °C -3.2 °F /  -19.6 °C 30.55in /  1034.4hPa South 2.0mph /  3.2km/h 5.0mph /  8km/h 81% 0.00in /  0mm
07:45 1.6 °F /  -16.9 °C -2.9 °F /  -19.4 °C 30.55in /  1034.4hPa South 2.0mph /  3.2km/h 4.0mph /  6.4km/h 81% 0.00in /  0mm
07:50 2.0 °F /  -16.7 °C -2.5 °F /  -19.2 °C 30.55in /  1034.4hPa South 2.0mph /  3.2km/h 4.0mph /  6.4km/h 81% 0.00in /  0mm
07:55 2.2 °F /  -16.6 °C -2.3 °F /  -19.1 °C 30.55in /  1034.4hPa South 2.0mph /  3.2km/h 5.0mph /  8km/h 81% 0.00in /  0mm
08:00 2.4 °F /  -16.4 °C -2.1 °F /  -18.9 °C 30.55in /  1034.4hPa South 2.0mph /  3.2km/h 5.0mph /  8km/h 81% 0.00in /  0mm
08:05 2.6 °F /  -16.3 °C -1.9 °F /  -18.8 °C 30.55in /  1034.4hPa South 2.0mph /  3.2km/h 3.0mph /  4.8km/h 81% 0.00in /  0mm
08:10 2.8 °F /  -16.2 °C -1.7 °F /  -18.7 °C 30.55in /  1034.4hPa SSW 3.0mph /  4.8km/h 7.0mph /  11.3km/h 81% 0.00in /  0mm
08:15 3.2 °F /  -16 °C -1.3 °F /  -18.5 °C 30.55in /  1034.4hPa SSW 5.0mph /  8km/h 9.0mph /  14.5km/h 81% 0.00in /  0mm
08:20 3.8 °F /  -15.7 °C -0.7 °F /  -18.2 °C 30.55in /  1034.4hPa SSW 4.0mph /  6.4km/h 10.0mph /  16.1km/h 81% 0.00in /  0mm
08:25 4.5 °F /  -15.3 °C 0.0 °F /  -17.8 °C 30.55in /  1034.4hPa SSW 5.0mph /  8km/h 10.0mph /  16.1km/h 81% 0.00in /  0mm
08:30 5.0 °F /  -15 °C 0.4 °F /  -17.6 °C 30.55in /  1034.4hPa SSW 5.0mph /  8km/h 9.0mph /  14.5km/h 81% 0.00in /  0mm
08:35 5.5 °F /  -14.7 °C 0.7 °F /  -17.4 °C 30.55in /  1034.4hPa SSW 5.0mph /  8km/h 11.0mph /  17.7km/h 80% 0.00in /  0mm
08:40 5.8 °F /  -14.6 °C 0.7 °F /  -17.4 °C 30.54in /  1034.1hPa SSW 6.0mph /  9.7km/h 13.0mph /  20.9km/h 79% 0.00in /  0mm
08:45 6.0 °F /  -14.4 °C 0.9 °F /  -17.3 °C 30.54in /  1034.1hPa South 2.0mph /  3.2km/h 9.0mph /  14.5km/h 79% 0.00in /  0mm
08:50 6.1 °F /  -14.4 °C 0.7 °F /  -17.4 °C 30.54in /  1034.1hPa South 10.0mph /  16.1km/h 12.0mph /  19.3km/h 78% 0.00in /  0mm
08:55 6.1 °F /  -14.4 °C 0.4 °F /  -17.6 °C 30.54in /  1034.1hPa SSW 5.0mph /  8km/h 14.0mph /  22.5km/h 77% 0.00in /  0mm
09:00 6.2 °F /  -14.3 °C 0.3 °F /  -17.6 °C 30.54in /  1034.1hPa SSW 6.0mph /  9.7km/h 14.0mph /  22.5km/h 76% 0.00in /  0mm
09:05 6.4 °F /  -14.2 °C 0.4 °F /  -17.6 °C 30.54in /  1034.1hPa SW 9.0mph /  14.5km/h 12.0mph /  19.3km/h 76% 0.00in /  0mm
09:10 6.6 °F /  -14.1 °C 0.4 °F /  -17.6 °C 30.54in /  1034.1hPa SSE 6.0mph /  9.7km/h 12.0mph /  19.3km/h 75% 0.00in /  0mm
09:20 7.0 °F /  -13.9 °C 0.2 °F /  -17.7 °C 30.53in /  1033.7hPa SSW 9.0mph /  14.5km/h 12.0mph /  19.3km/h 73% 0.00in /  0mm
09:25 7.1 °F /  -13.8 °C 0.0 °F /  -17.8 °C 30.53in /  1033.7hPa SSW 7.0mph /  11.3km/h 12.0mph /  19.3km/h 72% 0.00in /  0mm
09:30 7.5 °F /  -13.6 °C -0.2 °F /  -17.9 °C 30.53in /  1033.7hPa SSW 7.0mph /  11.3km/h 13.0mph /  20.9km/h 70% 0.00in /  0mm
09:35 8.0 °F /  -13.3 °C 0.2 °F /  -17.7 °C 30.52in /  1033.4hPa SW 6.0mph /  9.7km/h 10.0mph /  16.1km/h 70% 0.00in /  0mm
09:45 8.5 °F /  -13.1 °C 0.1 °F /  -17.7 °C 30.52in /  1033.4hPa SSW 4.0mph /  6.4km/h 9.0mph /  14.5km/h 68% 0.00in /  0mm
09:50 8.7 °F /  -12.9 °C 0.0 °F /  -17.8 °C 30.52in /  1033.4hPa SSW 5.0mph /  8km/h 10.0mph /  16.1km/h 67% 0.00in /  0mm
09:55 8.8 °F /  -12.9 °C -0.3 °F /  -17.9 °C 30.52in /  1033.4hPa SSW 5.0mph /  8km/h 11.0mph /  17.7km/h 66% 0.00in /  0mm
10:00 9.0 °F /  -12.8 °C -0.4 °F /  -18 °C 30.52in /  1033.4hPa SSW 5.0mph /  8km/h 11.0mph /  17.7km/h 65% 0.00in /  0mm
10:05 9.5 °F /  -12.5 °C -0.2 °F /  -17.9 °C 30.52in /  1033.4hPa South 6.0mph /  9.7km/h 10.0mph /  16.1km/h 64% 0.00in /  0mm
10:10 9.8 °F /  -12.3 °C -0.3 °F /  -17.9 °C 30.52in /  1033.4hPa SSW 5.0mph /  8km/h 13.0mph /  20.9km/h 63% 0.00in /  0mm
10:14 9.6 °F /  -12.4 °C -0.5 °F /  -18.1 °C 30.52in /  1033.4hPa South 8.0mph /  12.9km/h 13.0mph /  20.9km/h 63% 0.00in /  0mm
10:20 9.4 °F /  -12.6 °C -1.4 °F /  -18.6 °C 30.52in /  1033.4hPa SW 10.0mph /  16.1km/h 13.0mph /  20.9km/h 61% 0.00in /  0mm
10:25 9.3 °F /  -12.6 °C -1.4 °F /  -18.6 °C 30.52in /  1033.4hPa SSW 5.0mph /  8km/h 15.0mph /  24.1km/h 61% 0.00in /  0mm
10:30 9.6 °F /  -12.4 °C -0.8 °F /  -18.2 °C 30.51in /  1033.1hPa South 5.0mph /  8km/h 8.0mph /  12.9km/h 62% 0.00in /  0mm
10:35 9.9 °F /  -12.3 °C -0.9 °F /  -18.3 °C 30.50in /  1032.7hPa SW 6.0mph /  9.7km/h 13.0mph /  20.9km/h 61% 0.00in /  0mm
10:40 9.9 °F /  -12.3 °C -1.2 °F /  -18.4 °C 30.50in /  1032.7hPa SSW 6.0mph /  9.7km/h 11.0mph /  17.7km/h 60% 0.00in /  0mm
10:45 10.0 °F /  -12.2 °C -1.1 °F /  -18.4 °C 30.50in /  1032.7hPa SSE 7.0mph /  11.3km/h 13.0mph /  20.9km/h 60% 0.00in /  0mm
10:55 10.1 °F /  -12.2 °C -1.4 °F /  -18.6 °C 30.49in /  1032.4hPa SSW 7.0mph /  11.3km/h 13.0mph /  20.9km/h 59% 0.00in /  0mm
11:00 10.4 °F /  -12 °C -0.8 °F /  -18.2 °C 30.48in /  1032.1hPa SSW 7.0mph /  11.3km/h 14.0mph /  22.5km/h 60% 0.00in /  0mm
11:05 10.6 °F /  -11.9 °C -0.9 °F /  -18.3 °C 30.48in /  1032.1hPa SSW 6.0mph /  9.7km/h 14.0mph /  22.5km/h 59% 0.00in /  0mm
11:10 10.6 °F /  -11.9 °C -0.9 °F /  -18.3 °C 30.48in /  1032.1hPa SSW 8.0mph /  12.9km/h 15.0mph /  24.1km/h 59% 0.00in /  0mm
11:20 11.5 °F /  -11.4 °C -0.4 °F /  -18 °C 30.47in /  1031.7hPa SSW 7.0mph /  11.3km/h 14.0mph /  22.5km/h 58% 0.00in /  0mm
11:25 11.6 °F /  -11.3 °C -0.7 °F /  -18.2 °C 30.46in /  1031.4hPa SSW 7.0mph /  11.3km/h 16.0mph /  25.7km/h 57% 0.00in /  0mm
11:30 11.6 °F /  -11.3 °C -0.7 °F /  -18.2 °C 30.46in /  1031.4hPa SSW 7.0mph /  11.3km/h 16.0mph /  25.7km/h 57% 0.00in /  0mm
11:35 12.1 °F /  -11.1 °C -0.2 °F /  -17.9 °C 30.45in /  1031hPa SSW 6.0mph /  9.7km/h 15.0mph /  24.1km/h 57% 0.00in /  0mm
11:40 12.2 °F /  -11 °C -0.1 °F /  -17.8 °C 30.45in /  1031hPa South 6.0mph /  9.7km/h 13.0mph /  20.9km/h 57% 0.00in /  0mm
11:45 12.4 °F /  -10.9 °C -0.3 °F /  -17.9 °C 30.44in /  1030.7hPa SSW 7.0mph /  11.3km/h 15.0mph /  24.1km/h 56% 0.00in /  0mm
11:50 12.9 °F /  -10.6 °C 0.1 °F /  -17.7 °C 30.44in /  1030.7hPa SSW 6.0mph /  9.7km/h 15.0mph /  24.1km/h 56% 0.00in /  0mm
11:55 13.2 °F /  -10.4 °C 0.4 °F /  -17.6 °C 30.44in /  1030.7hPa SSW 6.0mph /  9.7km/h 15.0mph /  24.1km/h 56% 0.00in /  0mm
12:00 13.5 °F /  -10.3 °C 0.3 °F /  -17.6 °C 30.44in /  1030.7hPa SSW 7.0mph /  11.3km/h 15.0mph /  24.1km/h 55% 0.00in /  0mm
12:05 13.7 °F /  -10.2 °C 0.1 °F /  -17.7 °C 30.43in /  1030.4hPa SSW 6.0mph /  9.7km/h 15.0mph /  24.1km/h 54% 0.00in /  0mm
12:10 13.9 °F /  -10.1 °C 0.7 °F /  -17.4 °C 30.43in /  1030.4hPa SSW 6.0mph /  9.7km/h 15.0mph /  24.1km/h 55% 0.00in /  0mm
12:15 13.4 °F /  -10.3 °C -0.2 °F /  -17.9 °C 30.43in /  1030.4hPa SW 13.0mph /  20.9km/h 14.0mph /  22.5km/h 54% 0.00in /  0mm
12:20 13.4 °F /  -10.3 °C 0.2 °F /  -17.7 °C 30.42in /  1030hPa SSW 8.0mph /  12.9km/h 15.0mph /  24.1km/h 55% 0.00in /  0mm
12:30 13.7 °F /  -10.2 °C 0.1 °F /  -17.7 °C 30.41in /  1029.7hPa SSW 7.0mph /  11.3km/h 17.0mph /  27.4km/h 54% 0.00in /  0mm
12:35 14.3 °F /  -9.8 °C 1.4 °F /  -17 °C 30.41in /  1029.7hPa South 3.0mph /  4.8km/h 11.0mph /  17.7km/h 56% 0.00in /  0mm
12:40 14.4 °F /  -9.8 °C 1.2 °F /  -17.1 °C 30.40in /  1029.3hPa WSW 5.0mph /  8km/h 12.0mph /  19.3km/h 55% 0.00in /  0mm
12:45 14.2 °F /  -9.9 °C 0.6 °F /  -17.4 °C 30.40in /  1029.3hPa SSW 6.0mph /  9.7km/h 13.0mph /  20.9km/h 54% 0.00in /  0mm
12:50 14.2 °F /  -9.9 °C 1.4 °F /  -17 °C 30.39in /  1029hPa SW 4.0mph /  6.4km/h 12.0mph /  19.3km/h 56% 0.00in /  0mm
12:55 14.2 °F /  -9.9 °C 1.0 °F /  -17.2 °C 30.38in /  1028.7hPa SSW 6.0mph /  9.7km/h 12.0mph /  19.3km/h 55% 0.00in /  0mm
13:00 14.3 °F /  -9.8 °C 1.4 °F /  -17 °C 30.37in /  1028.3hPa SSW 7.0mph /  11.3km/h 14.0mph /  22.5km/h 56% 0.00in /  0mm
13:05 14.3 °F /  -9.8 °C 0.7 °F /  -17.4 °C 30.36in /  1028hPa SSW 7.0mph /  11.3km/h 14.0mph /  22.5km/h 54% 0.00in /  0mm
13:15 14.2 °F /  -9.9 °C 0.6 °F /  -17.4 °C 30.35in /  1027.7hPa SSW 6.0mph /  9.7km/h 14.0mph /  22.5km/h 54% 0.00in /  0mm
13:20 14.3 °F /  -9.8 °C 0.7 °F /  -17.4 °C 30.35in /  1027.7hPa SSW 7.0mph /  11.3km/h 14.0mph /  22.5km/h 54% 0.00in /  0mm
13:25 14.4 °F /  -9.8 °C 0.8 °F /  -17.3 °C 30.35in /  1027.7hPa SSW 7.0mph /  11.3km/h 17.0mph /  27.4km/h 54% 0.00in /  0mm
13:30 14.5 °F /  -9.7 °C 0.9 °F /  -17.3 °C 30.34in /  1027.3hPa South 3.0mph /  4.8km/h 11.0mph /  17.7km/h 54% 0.00in /  0mm
13:35 14.7 °F /  -9.6 °C 1.4 °F /  -17 °C 30.34in /  1027.3hPa SSW 6.0mph /  9.7km/h 12.0mph /  19.3km/h 55% 0.00in /  0mm
13:40 14.7 °F /  -9.6 °C 0.6 °F /  -17.4 °C 30.34in /  1027.3hPa SW 6.0mph /  9.7km/h 14.0mph /  22.5km/h 53% 0.00in /  0mm
13:45 14.8 °F /  -9.6 °C 1.1 °F /  -17.2 °C 30.34in /  1027.3hPa SW 7.0mph /  11.3km/h 16.0mph /  25.7km/h 54% 0.00in /  0mm
13:50 14.9 °F /  -9.5 °C 0.8 °F /  -17.3 °C 30.34in /  1027.3hPa SSW 7.0mph /  11.3km/h 16.0mph /  25.7km/h 53% 0.00in /  0mm
13:55 15.1 °F /  -9.4 °C 1.4 °F /  -17 °C 30.33in /  1027hPa SW 5.0mph /  8km/h 10.0mph /  16.1km/h 54% 0.00in /  0mm
14:00 15.2 °F /  -9.3 °C 1.5 °F /  -16.9 °C 30.33in /  1027hPa SSW 6.0mph /  9.7km/h 12.0mph /  19.3km/h 54% 0.00in /  0mm
14:05 15.3 °F /  -9.3 °C 1.6 °F /  -16.9 °C 30.32in /  1026.6hPa SSW 6.0mph /  9.7km/h 13.0mph /  20.9km/h 54% 0.00in /  0mm
14:15 15.4 °F /  -9.2 °C 1.3 °F /  -17.1 °C 30.31in /  1026.3hPa SSW 7.0mph /  11.3km/h 16.0mph /  25.7km/h 53% 0.00in /  0mm
14:20 15.4 °F /  -9.2 °C 1.7 °F /  -16.8 °C 30.31in /  1026.3hPa SW 4.0mph /  6.4km/h 11.0mph /  17.7km/h 54% 0.00in /  0mm
14:25 15.5 °F /  -9.2 °C 1.8 °F /  -16.8 °C 30.30in /  1026hPa SSW 4.0mph /  6.4km/h 14.0mph /  22.5km/h 54% 0.00in /  0mm
14:30 15.8 °F /  -9 °C 2.5 °F /  -16.4 °C 30.30in /  1026hPa SSW 6.0mph /  9.7km/h 14.0mph /  22.5km/h 55% 0.00in /  0mm
14:35 16.1 °F /  -8.8 °C 2.4 °F /  -16.4 °C 30.29in /  1025.6hPa SSW 5.0mph /  8km/h 15.0mph /  24.1km/h 54% 0.00in /  0mm
14:40 16.3 °F /  -8.7 °C 2.1 °F /  -16.6 °C 30.29in /  1025.6hPa SSW 6.0mph /  9.7km/h 15.0mph /  24.1km/h 53% 0.00in /  0mm
14:45 16.5 °F /  -8.6 °C 2.3 °F /  -16.5 °C 30.29in /  1025.6hPa SSW 6.0mph /  9.7km/h 14.0mph /  22.5km/h 53% 0.00in /  0mm
14:50 16.8 °F /  -8.4 °C 2.6 °F /  -16.3 °C 30.29in /  1025.6hPa SSW 6.0mph /  9.7km/h 12.0mph /  19.3km/h 53% 0.00in /  0mm
14:55 17.0 °F /  -8.3 °C 2.4 °F /  -16.4 °C 30.28in /  1025.3hPa SSW 5.0mph /  8km/h 13.0mph /  20.9km/h 52% 0.00in /  0mm
15:00 17.1 °F /  -8.3 °C 2.9 °F /  -16.2 °C 30.28in /  1025.3hPa SW 7.0mph /  11.3km/h 13.0mph /  20.9km/h 53% 0.00in /  0mm
15:05 17.2 °F /  -8.2 °C 2.6 °F /  -16.3 °C 30.27in /  1024.9hPa SSW 5.0mph /  8km/h 14.0mph /  22.5km/h 52% 0.00in /  0mm
15:10 17.4 °F /  -8.1 °C 3.2 °F /  -16 °C 30.27in /  1024.9hPa SSW 7.0mph /  11.3km/h 14.0mph /  22.5km/h 53% 0.00in /  0mm
15:15 17.6 °F /  -8 °C 3.3 °F /  -15.9 °C 30.26in /  1024.6hPa South 3.0mph /  4.8km/h 13.0mph /  20.9km/h 53% 0.00in /  0mm
15:20 17.7 °F /  -7.9 °C 3.0 °F /  -16.1 °C 30.26in /  1024.6hPa SSW 6.0mph /  9.7km/h 14.0mph /  22.5km/h 52% 0.00in /  0mm
15:25 17.9 °F /  -7.8 °C 2.8 °F /  -16.2 °C 30.26in /  1024.6hPa SSW 7.0mph /  11.3km/h 14.0mph /  22.5km/h 51% 0.00in /  0mm
15:30 18.1 °F /  -7.7 °C 3.0 °F /  -16.1 °C 30.25in /  1024.3hPa SSW 7.0mph /  11.3km/h 17.0mph /  27.4km/h 51% 0.00in /  0mm
15:35 18.3 °F /  -7.6 °C 3.2 °F /  -16 °C 30.25in /  1024.3hPa SW 7.0mph /  11.3km/h 14.0mph /  22.5km/h 51% 0.00in /  0mm
15:40 18.6 °F /  -7.4 °C 3.0 °F /  -16.1 °C 30.24in /  1023.9hPa SSE 8.0mph /  12.9km/h 17.0mph /  27.4km/h 50% 0.00in /  0mm
15:50 19.0 °F /  -7.2 °C 3.8 °F /  -15.7 °C 30.24in /  1023.9hPa WSW 8.0mph /  12.9km/h 12.0mph /  19.3km/h 51% 0.00in /  0mm
15:55 19.3 °F /  -7.1 °C 3.7 °F /  -15.7 °C 30.24in /  1023.9hPa SSW 7.0mph /  11.3km/h 13.0mph /  20.9km/h 50% 0.00in /  0mm
16:00 19.5 °F /  -6.9 °C 3.4 °F /  -15.9 °C 30.24in /  1023.9hPa SSW 7.0mph /  11.3km/h 13.0mph /  20.9km/h 49% 0.00in /  0mm
16:05 19.7 °F /  -6.8 °C 4.0 °F /  -15.6 °C 30.24in /  1023.9hPa SW 8.0mph /  12.9km/h 11.0mph /  17.7km/h 50% 0.00in /  0mm
16:10 19.9 °F /  -6.7 °C 3.8 °F /  -15.7 °C 30.24in /  1023.9hPa SSW 8.0mph /  12.9km/h 14.0mph /  22.5km/h 49% 0.00in /  0mm
16:15 20.0 °F /  -6.7 °C 3.9 °F /  -15.6 °C 30.23in /  1023.6hPa SSW 5.0mph /  8km/h 11.0mph /  17.7km/h 49% 0.00in /  0mm
16:20 20.1 °F /  -6.6 °C 4.0 °F /  -15.6 °C 30.23in /  1023.6hPa SSW 6.0mph /  9.7km/h 15.0mph /  24.1km/h 49% 0.00in /  0mm
16:30 20.6 °F /  -6.3 °C 4.4 °F /  -15.3 °C 30.22in /  1023.2hPa SSW 7.0mph /  11.3km/h 15.0mph /  24.1km/h 49% 0.00in /  0mm
16:39 20.7 °F /  -6.3 °C 4.5 °F /  -15.3 °C 30.21in /  1022.9hPa SSE 5.0mph /  8km/h 15.0mph /  24.1km/h 49% 0.00in /  0mm
16:45 20.8 °F /  -6.2 °C 4.6 °F /  -15.2 °C 30.21in /  1022.9hPa SSW 7.0mph /  11.3km/h 15.0mph /  24.1km/h 49% 0.00in /  0mm
16:54 20.8 °F /  -6.2 °C 5.1 °F /  -14.9 °C 30.21in /  1022.9hPa SSW 8.0mph /  12.9km/h 10.0mph /  16.1km/h 50% 0.00in /  0mm
16:59 20.9 °F /  -6.2 °C 4.7 °F /  -15.2 °C 30.21in /  1022.9hPa SSW 6.0mph /  9.7km/h 12.0mph /  19.3km/h 49% 0.00in /  0mm
17:05 21.0 °F /  -6.1 °C 4.4 °F /  -15.3 °C 30.21in /  1022.9hPa SSW 7.0mph /  11.3km/h 16.0mph /  25.7km/h 48% 0.00in /  0mm
17:15 21.1 °F /  -6.1 °C 4.9 °F /  -15.1 °C 30.20in /  1022.6hPa SSW 8.0mph /  12.9km/h 18.0mph /  29km/h 49% 0.00in /  0mm
17:20 21.1 °F /  -6.1 °C 4.9 °F /  -15.1 °C 30.20in /  1022.6hPa SSW 7.0mph /  11.3km/h 14.0mph /  22.5km/h 49% 0.00in /  0mm
17:30 21.2 °F /  -6 °C 5.4 °F /  -14.8 °C 30.20in /  1022.6hPa SSW 7.0mph /  11.3km/h 15.0mph /  24.1km/h 50% 0.00in /  0mm
17:35 21.2 °F /  -6 °C 5.4 °F /  -14.8 °C 30.20in /  1022.6hPa SSW 8.0mph /  12.9km/h 18.0mph /  29km/h 50% 0.00in /  0mm
17:40 21.3 °F /  -5.9 °C 5.5 °F /  -14.7 °C 30.19in /  1022.2hPa SSW 8.0mph /  12.9km/h 18.0mph /  29km/h 50% 0.00in /  0mm
17:50 21.3 °F /  -5.9 °C 5.5 °F /  -14.7 °C 30.19in /  1022.2hPa SSW 8.0mph /  12.9km/h 18.0mph /  29km/h 50% 0.00in /  0mm
17:59 21.4 °F /  -5.9 °C 6.5 °F /  -14.2 °C 30.19in /  1022.2hPa SW 6.0mph /  9.7km/h 15.0mph /  24.1km/h 52% 0.00in /  0mm
18:04 21.5 °F /  -5.8 °C 7.0 °F /  -13.9 °C 30.18in /  1021.9hPa SSW 8.0mph /  12.9km/h 17.0mph /  27.4km/h 53% 0.00in /  0mm
18:10 21.5 °F /  -5.8 °C 7.0 °F /  -13.9 °C 30.18in /  1021.9hPa SSW 8.0mph /  12.9km/h 17.0mph /  27.4km/h 53% 0.00in /  0mm
18:15 21.6 °F /  -5.8 °C 7.5 °F /  -13.6 °C 30.17in /  1021.6hPa South 5.0mph /  8km/h 16.0mph /  25.7km/h 54% 0.00in /  0mm
18:20 21.7 °F /  -5.7 °C 8.0 °F /  -13.3 °C 30.17in /  1021.6hPa SSW 7.0mph /  11.3km/h 16.0mph /  25.7km/h 55% 0.00in /  0mm
18:25 21.8 °F /  -5.7 °C 8.5 °F /  -13.1 °C 30.17in /  1021.6hPa SSW 7.0mph /  11.3km/h 17.0mph /  27.4km/h 56% 0.00in /  0mm
18:30 21.9 °F /  -5.6 °C 8.6 °F /  -13 °C 30.17in /  1021.6hPa SSW 7.0mph /  11.3km/h 17.0mph /  27.4km/h 56% 0.00in /  0mm
18:35 22.0 °F /  -5.6 °C 8.7 °F /  -12.9 °C 30.17in /  1021.6hPa SSW 6.0mph /  9.7km/h 18.0mph /  29km/h 56% 0.00in /  0mm
18:40 22.2 °F /  -5.4 °C 8.9 °F /  -12.8 °C 30.17in /  1021.6hPa SW 7.0mph /  11.3km/h 14.0mph /  22.5km/h 56% 0.00in /  0mm
18:45 22.3 °F /  -5.4 °C 9.0 °F /  -12.8 °C 30.17in /  1021.6hPa SSW 7.0mph /  11.3km/h 20.0mph /  32.2km/h 56% 0.00in /  0mm
18:49 22.4 °F /  -5.3 °C 9.4 °F /  -12.6 °C 30.17in /  1021.6hPa SSW 7.0mph /  11.3km/h 20.0mph /  32.2km/h 57% 0.00in /  0mm
18:54 22.5 °F /  -5.3 °C 9.5 °F /  -12.5 °C 30.17in /  1021.6hPa South 6.0mph /  9.7km/h 13.0mph /  20.9km/h 57% 0.00in /  0mm
19:05 22.7 °F /  -5.2 °C 10.5 °F /  -11.9 °C 30.17in /  1021.6hPa WSW 6.0mph /  9.7km/h 12.0mph /  19.3km/h 59% 0.00in /  0mm
19:09 22.8 °F /  -5.1 °C 10.6 °F /  -11.9 °C 30.17in /  1021.6hPa SW 7.0mph /  11.3km/h 18.0mph /  29km/h 59% 0.00in /  0mm
19:14 22.9 °F /  -5.1 °C 11.1 °F /  -11.6 °C 30.16in /  1021.2hPa SSW 7.0mph /  11.3km/h 18.0mph /  29km/h 60% 0.00in /  0mm
19:25 23.1 °F /  -4.9 °C 12.0 °F /  -11.1 °C 30.15in /  1020.9hPa SSW 7.0mph /  11.3km/h 16.0mph /  25.7km/h 62% 0.00in /  0mm
19:30 23.2 °F /  -4.9 °C 12.1 °F /  -11.1 °C 30.15in /  1020.9hPa SSW 7.0mph /  11.3km/h 14.0mph /  22.5km/h 62% 0.00in /  0mm
19:40 23.4 °F /  -4.8 °C 12.6 °F /  -10.8 °C 30.14in /  1020.5hPa SSW 6.0mph /  9.7km/h 13.0mph /  20.9km/h 63% 0.00in /  0mm
19:45 23.5 °F /  -4.7 °C 13.1 °F /  -10.5 °C 30.14in /  1020.5hPa SW 8.0mph /  12.9km/h 11.0mph /  17.7km/h 64% 0.00in /  0mm
19:55 23.8 °F /  -4.6 °C 13.4 °F /  -10.3 °C 30.13in /  1020.2hPa SW 6.0mph /  9.7km/h 15.0mph /  24.1km/h 64% 0.00in /  0mm
20:00 23.9 °F /  -4.5 °C 13.5 °F /  -10.3 °C 30.13in /  1020.2hPa SSW 6.0mph /  9.7km/h 15.0mph /  24.1km/h 64% 0.00in /  0mm
20:04 24.0 °F /  -4.4 °C 13.6 °F /  -10.2 °C 30.13in /  1020.2hPa SSW 4.0mph /  6.4km/h 16.0mph /  25.7km/h 64% 0.00in /  0mm
20:09 24.1 °F /  -4.4 °C 14.0 °F /  -10 °C 30.12in /  1019.9hPa SW 6.0mph /  9.7km/h 15.0mph /  24.1km/h 65% 0.00in /  0mm
20:15 24.3 °F /  -4.3 °C 14.2 °F /  -9.9 °C 30.12in /  1019.9hPa SSW 6.0mph /  9.7km/h 15.0mph /  24.1km/h 65% 0.00in /  0mm
20:20 24.5 °F /  -4.2 °C 14.4 °F /  -9.8 °C 30.12in /  1019.9hPa SSW 7.0mph /  11.3km/h 13.0mph /  20.9km/h 65% 0.00in /  0mm
20:25 24.6 °F /  -4.1 °C 14.5 °F /  -9.7 °C 30.12in /  1019.9hPa South 11.0mph /  17.7km/h 13.0mph /  20.9km/h 65% 0.00in /  0mm
20:30 24.8 °F /  -4 °C 14.7 °F /  -9.6 °C 30.12in /  1019.9hPa SSW 7.0mph /  11.3km/h 14.0mph /  22.5km/h 65% 0.00in /  0mm
20:40 25.1 °F /  -3.8 °C 14.3 °F /  -9.8 °C 30.11in /  1019.5hPa SSW 7.0mph /  11.3km/h 18.0mph /  29km/h 63% 0.00in /  0mm
20:45 25.2 °F /  -3.8 °C 14.4 °F /  -9.8 °C 30.11in /  1019.5hPa SW 8.0mph /  12.9km/h 15.0mph /  24.1km/h 63% 0.00in /  0mm
20:50 25.3 °F /  -3.7 °C 14.5 °F /  -9.7 °C 30.11in /  1019.5hPa SSW 6.0mph /  9.7km/h 15.0mph /  24.1km/h 63% 0.00in /  0mm
20:54 25.4 °F /  -3.7 °C 14.2 °F /  -9.9 °C 30.10in /  1019.2hPa SSW 6.0mph /  9.7km/h 21.0mph /  33.8km/h 62% 0.00in /  0mm
21:00 25.5 °F /  -3.6 °C 14.3 °F /  -9.8 °C 30.10in /  1019.2hPa SSW 7.0mph /  11.3km/h 21.0mph /  33.8km/h 62% 0.00in /  0mm
21:05 25.6 °F /  -3.6 °C 14.0 °F /  -10 °C 30.10in /  1019.2hPa SW 12.0mph /  19.3km/h 14.0mph /  22.5km/h 61% 0.00in /  0mm
21:10 25.7 °F /  -3.5 °C 14.1 °F /  -9.9 °C 30.09in /  1018.8hPa SSW 7.0mph /  11.3km/h 17.0mph /  27.4km/h 61% 0.00in /  0mm
21:25 25.9 °F /  -3.4 °C 14.3 °F /  -9.8 °C 30.09in /  1018.8hPa SW 6.0mph /  9.7km/h 13.0mph /  20.9km/h 61% 0.00in /  0mm
21:30 26.0 °F /  -3.3 °C 14.0 °F /  -10 °C 30.09in /  1018.8hPa South 8.0mph /  12.9km/h 15.0mph /  24.1km/h 60% 0.00in /  0mm
21:50 26.4 °F /  -3.1 °C 14.0 °F /  -10 °C 30.09in /  1018.8hPa SSW 7.0mph /  11.3km/h 15.0mph /  24.1km/h 59% 0.00in /  0mm
22:10 26.5 °F /  -3.1 °C 14.1 °F /  -9.9 °C 30.09in /  1018.8hPa WSW 5.0mph /  8km/h 16.0mph /  25.7km/h 59% 0.00in /  0mm
22:20 26.6 °F /  -3 °C 13.8 °F /  -10.1 °C 30.09in /  1018.8hPa WSW 10.0mph /  16.1km/h 19.0mph /  30.6km/h 58% 0.00in /  0mm
22:50 27.4 °F /  -2.6 °C 14.1 °F /  -9.9 °C 30.09in /  1018.8hPa SSW 7.0mph /  11.3km/h 18.0mph /  29km/h 57% 0.00in /  0mm
22:55 27.4 °F /  -2.6 °C 14.1 °F /  -9.9 °C 30.09in /  1018.8hPa SW 7.0mph /  11.3km/h 17.0mph /  27.4km/h 57% 0.00in /  0mm
Buffalo, New York, USA
Compliments of Weather Underground - 2 mb